Time;durP1;ratioP1;P1;durP2;ratioP2;P2;SDS_P1;SDS_P2;PMS_P1;PMS_P2;Temp;Humidity;BMP_temperature;BMP_pressure;BME280_temperature;BME280_humidity;BME280_pressure;Samples;Min_cycle;Max_cycle;Signal;HPM_P1;HPM_P2
2021/05/15 00:01:30;;;;;;;0.40;0.40;;;11.60;99.90;;;;;;1920320;75;21445;-75
2021/05/15 00:03:56;;;;;;;1.40;0.40;;;11.60;99.90;;;;;;1909277;75;21091;-76
2021/05/15 00:06:23;;;;;;;1.42;0.50;;;11.60;99.90;;;;;;1907351;75;21565;-77
2021/05/15 00:08:49;;;;;;;0.28;0.28;;;11.60;99.90;;;;;;1907031;75;21444;-77
2021/05/15 00:11:15;;;;;;;1.25;0.50;;;11.50;99.90;;;;;;1907337;75;21083;-77
2021/05/15 00:13:41;;;;;;;1.15;0.53;;;11.50;99.90;;;;;;1907174;75;21075;-77
2021/05/15 00:16:07;;;;;;;0.57;0.50;;;11.50;99.90;;;;;;1907386;75;21153;-76
2021/05/15 00:18:33;;;;;;;0.30;0.30;;;11.60;99.90;;;;;;1907277;75;21142;-76
2021/05/15 00:20:59;;;;;;;0.78;0.50;;;11.50;99.90;;;;;;1907272;75;21144;-76
2021/05/15 00:23:26;;;;;;;0.68;0.47;;;11.50;99.90;;;;;;1907360;75;21043;-76
2021/05/15 00:25:52;;;;;;;5.83;0.50;;;11.40;99.90;;;;;;1907499;75;21168;-76
2021/05/15 00:28:18;;;;;;;0.75;0.45;;;11.50;99.90;;;;;;1907132;75;21040;-76
2021/05/15 00:30:44;;;;;;;0.40;0.40;;;11.40;99.90;;;;;;1907313;75;21086;-76
2021/05/15 00:33:10;;;;;;;0.50;0.50;;;11.40;99.90;;;;;;1907188;75;21083;-76
2021/05/15 00:35:36;;;;;;;0.35;0.35;;;11.30;99.90;;;;;;1907363;75;21083;-76
2021/05/15 00:38:02;;;;;;;0.70;0.42;;;11.20;99.90;;;;;;1907232;75;21055;-76
2021/05/15 00:40:28;;;;;;;0.70;0.50;;;11.20;99.90;;;;;;1907274;75;21510;-76
2021/05/15 00:42:55;;;;;;;3.20;0.40;;;11.10;99.90;;;;;;1907124;75;21482;-76
2021/05/15 00:45:21;;;;;;;0.30;0.30;;;11.00;99.90;;;;;;1907356;75;21568;-76
2021/05/15 00:47:47;;;;;;;0.85;0.47;;;11.00;99.90;;;;;;1907142;75;21585;-76
2021/05/15 00:50:14;;;;;;;0.28;0.28;;;11.00;99.90;;;;;;1907308;75;21499;-76
2021/05/15 00:52:40;;;;;;;3.20;0.50;;;10.90;99.90;;;;;;1907442;75;21079;-76
2021/05/15 00:55:06;;;;;;;1.90;0.53;;;10.90;99.90;;;;;;1907232;75;21078;-76
2021/05/15 00:57:33;;;;;;;0.40;0.40;;;10.80;99.90;;;;;;1907220;75;21133;-76
2021/05/15 00:59:59;;;;;;;0.33;0.33;;;10.80;99.90;;;;;;1907241;75;21145;-75
2021/05/15 01:02:25;;;;;;;0.68;0.50;;;10.80;99.90;;;;;;1907211;75;21075;-76
2021/05/15 01:04:51;;;;;;;0.40;0.40;;;10.70;99.90;;;;;;1907235;75;21149;-75
2021/05/15 01:07:17;;;;;;;0.50;0.50;;;10.70;99.90;;;;;;1907356;75;21051;-76
2021/05/15 01:09:43;;;;;;;1.07;0.53;;;10.60;99.90;;;;;;1907229;75;21518;-75
2021/05/15 01:12:09;;;;;;;0.30;0.30;;;10.60;99.90;;;;;;1907245;75;21536;-76
2021/05/15 01:14:36;;;;;;;0.47;0.47;;;10.60;99.90;;;;;;1907236;75;21063;-75
2021/05/15 01:17:02;;;;;;;0.42;0.40;;;10.60;99.90;;;;;;1907307;75;21083;-76
2021/05/15 01:19:28;;;;;;;0.85;0.70;;;10.50;99.90;;;;;;1907290;75;21048;-75
2021/05/15 01:21:54;;;;;;;1.25;0.50;;;10.60;99.90;;;;;;1907102;75;21137;-76
2021/05/15 01:24:20;;;;;;;0.45;0.40;;;10.60;99.90;;;;;;1907291;75;21079;-76
2021/05/15 01:26:46;;;;;;;0.30;0.30;;;10.50;99.90;;;;;;1907196;75;21035;-75
2021/05/15 01:29:12;;;;;;;0.30;0.30;;;10.40;99.90;;;;;;1907259;75;21188;-76
2021/05/15 01:31:39;;;;;;;1.65;0.47;;;10.40;99.90;;;;;;1907100;75;21048;-75
2021/05/15 01:34:05;;;;;;;0.28;0.28;;;10.40;99.90;;;;;;1907304;75;21070;-76
2021/05/15 01:36:34;;;;;;;0.40;0.37;;;10.50;99.90;;;;;;1907148;75;21071;-76
2021/05/15 01:38:59;;;;;;;0.95;0.45;;;10.40;99.90;;;;;;1906914;75;21503;-76
2021/05/15 01:41:25;;;;;;;4.95;0.85;;;10.40;99.90;;;;;;1907114;75;21036;-75
2021/05/15 01:43:51;;;;;;;2.02;0.50;;;10.30;99.90;;;;;;1907284;75;21079;-76
2021/05/15 01:46:17;;;;;;;0.40;0.40;;;10.30;99.90;;;;;;1907122;75;21144;-75
2021/05/15 01:48:43;;;;;;;4.87;0.75;;;10.30;99.90;;;;;;1907282;75;21071;-76
2021/05/15 01:51:10;;;;;;;0.53;0.40;;;10.20;99.90;;;;;;1907088;75;21145;-76
2021/05/15 01:53:37;;;;;;;0.50;0.40;;;10.20;99.90;;;;;;1907268;75;21546;-75
2021/05/15 01:56:03;;;;;;;0.50;0.50;;;10.00;99.90;;;;;;1907196;75;21569;-76
2021/05/15 01:58:29;;;;;;;0.72;0.50;;;10.00;99.90;;;;;;1907243;75;21474;-75
2021/05/15 02:00:55;;;;;;;0.95;0.55;;;10.00;99.90;;;;;;1882204;75;21431;-76
2021/05/15 02:03:22;;;;;;;0.42;0.42;;;10.00;99.90;;;;;;1907217;75;21494;-75
2021/05/15 02:05:48;;;;;;;0.98;0.65;;;10.00;99.90;;;;;;1907494;75;21067;-75
2021/05/15 02:08:14;;;;;;;0.53;0.37;;;9.90;99.90;;;;;;1907392;75;21132;-75
2021/05/15 02:10:40;;;;;;;0.42;0.42;;;9.70;99.90;;;;;;1907378;75;21051;-75
2021/05/15 02:13:06;;;;;;;1.12;0.60;;;9.70;99.90;;;;;;1907322;75;21040;-75
2021/05/15 02:15:35;;;;;;;0.65;0.57;;;9.60;99.90;;;;;;1907352;75;21040;-75
2021/05/15 02:18:01;;;;;;;1.50;0.45;;;9.60;99.90;;;;;;1907360;75;21463;-76
2021/05/15 02:20:28;;;;;;;0.50;0.50;;;9.60;99.90;;;;;;1907320;75;21067;-75
2021/05/15 02:22:54;;;;;;;0.90;0.62;;;9.60;99.90;;;;;;1907302;75;21067;-75
2021/05/15 02:25:20;;;;;;;0.60;0.60;;;9.50;99.90;;;;;;1907332;75;21071;-75
2021/05/15 02:27:46;;;;;;;2.92;0.50;;;9.50;99.90;;;;;;1907298;75;21067;-76
2021/05/15 02:30:12;;;;;;;0.50;0.50;;;9.50;99.90;;;;;;1907267;75;21063;-74
2021/05/15 02:32:38;;;;;;;1.07;0.60;;;9.50;99.90;;;;;;1907248;75;21051;-75
2021/05/15 02:35:04;;;;;;;0.40;0.40;;;9.40;99.90;;;;;;1907342;75;21067;-75
2021/05/15 02:37:30;;;;;;;0.72;0.50;;;9.30;99.90;;;;;;1907344;75;21071;-75
2021/05/15 02:39:56;;;;;;;0.72;0.65;;;9.20;99.90;;;;;;1907359;75;21129;-75
2021/05/15 02:42:23;;;;;;;0.85;0.60;;;9.20;99.90;;;;;;1907651;75;21047;-75
2021/05/15 02:44:51;;;;;;;0.62;0.60;;;9.10;99.90;;;;;;1907250;75;21067;-75
2021/05/15 02:47:17;;;;;;;0.60;0.50;;;9.20;99.90;;;;;;1907283;75;21136;-75
2021/05/15 02:49:43;;;;;;;1.10;0.55;;;9.20;99.90;;;;;;1907494;75;21111;-75
2021/05/15 02:52:09;;;;;;;0.78;0.78;;;9.30;99.90;;;;;;1907509;75;21079;-75
2021/05/15 02:54:35;;;;;;;1.22;0.95;;;9.20;99.90;;;;;;1907531;75;21076;-75
2021/05/15 02:57:01;;;;;;;0.50;0.50;;;9.10;99.90;;;;;;1907221;75;21040;-75
2021/05/15 02:59:27;;;;;;;1.32;0.70;;;9.10;99.90;;;;;;1907399;75;21132;-75
2021/05/15 03:01:53;;;;;;;1.55;0.93;;;9.00;99.90;;;;;;1907245;75;21067;-75
2021/05/15 03:04:19;;;;;;;1.17;0.62;;;8.90;99.90;;;;;;1907407;75;21078;-75
2021/05/15 03:06:46;;;;;;;0.55;0.50;;;8.80;99.90;;;;;;1907222;75;21148;-75
2021/05/15 03:09:12;;;;;;;3.60;0.47;;;8.80;99.90;;;;;;1907407;75;21463;-75
2021/05/15 03:11:38;;;;;;;0.50;0.50;;;8.70;99.90;;;;;;1907266;75;21494;-75
2021/05/15 03:14:04;;;;;;;2.47;0.70;;;8.70;99.90;;;;;;1907327;75;21479;-75
2021/05/15 03:16:31;;;;;;;0.70;0.57;;;8.60;99.90;;;;;;1907272;75;21071;-75
2021/05/15 03:18:57;;;;;;;0.55;0.55;;;8.50;99.90;;;;;;1907327;75;21074;-75
2021/05/15 03:21:23;;;;;;;0.75;0.75;;;8.60;99.90;;;;;;1907353;75;21130;-75
2021/05/15 03:23:49;;;;;;;0.30;0.30;;;8.50;99.90;;;;;;1907341;75;21148;-76
2021/05/15 03:26:15;;;;;;;1.90;0.88;;;8.50;99.90;;;;;;1907313;75;21482;-75
2021/05/15 03:28:42;;;;;;;0.70;0.68;;;8.50;99.90;;;;;;1907436;75;21512;-75
2021/05/15 03:31:08;;;;;;;1.20;0.70;;;8.30;99.90;;;;;;1907307;75;21510;-75
2021/05/15 03:33:34;;;;;;;2.77;0.62;;;8.30;99.90;;;;;;1907311;75;21482;-75
2021/05/15 03:36:00;;;;;;;1.17;0.55;;;8.20;99.90;;;;;;1907321;75;21136;-75
2021/05/15 03:38:26;;;;;;;2.67;0.90;;;8.30;99.90;;;;;;1907320;75;21063;-75
2021/05/15 03:40:52;;;;;;;0.88;0.80;;;8.30;99.90;;;;;;1907316;75;21039;-74
2021/05/15 03:43:18;;;;;;;2.05;0.85;;;8.30;99.90;;;;;;1907333;75;21034;-75
2021/05/15 03:45:44;;;;;;;0.55;0.55;;;8.30;99.90;;;;;;1907394;75;21173;-75
2021/05/15 03:48:10;;;;;;;0.57;0.50;;;8.30;99.90;;;;;;1907426;75;21071;-75
2021/05/15 03:50:37;;;;;;;0.98;0.60;;;8.30;99.90;;;;;;1907478;75;21144;-74
2021/05/15 03:53:03;;;;;;;3.47;0.80;;;8.40;99.90;;;;;;1907499;75;21266;-74
2021/05/15 03:55:29;;;;;;;0.60;0.50;;;8.40;99.90;;;;;;1907386;75;21499;-74
2021/05/15 03:57:55;;;;;;;0.53;0.50;;;8.50;99.90;;;;;;1907281;75;21416;-74
2021/05/15 04:00:21;;;;;;;0.60;0.60;;;8.30;99.90;;;;;;1907297;75;21454;-75
2021/05/15 04:02:48;;;;;;;0.65;0.62;;;8.40;99.90;;;;;;1907300;75;21074;-75
2021/05/15 04:05:15;;;;;;;0.65;0.50;;;8.40;99.90;;;;;;1907365;75;21083;-75
2021/05/15 04:07:41;;;;;;;1.07;0.65;;;8.50;99.90;;;;;;1907327;75;21075;-75
2021/05/15 04:10:07;;;;;;;0.62;0.62;;;8.60;99.90;;;;;;1907284;75;21071;-75
2021/05/15 04:12:36;;;;;;;2.52;0.80;;;8.60;99.90;;;;;;1907285;75;21172;-74
2021/05/15 04:15:06;;;;;;;2.40;0.78;;;8.60;99.90;;;;;;1907296;75;21400;-75
2021/05/15 04:17:30;;;;;;;0.60;0.60;;;8.60;99.90;;;;;;1906856;75;21080;-75
2021/05/15 04:19:58;;;;;;;1.90;0.90;;;8.50;99.90;;;;;;1907288;75;21079;-74
2021/05/15 04:22:24;;;;;;;1.27;0.62;;;8.50;99.90;;;;;;1907285;75;21082;-74
2021/05/15 04:24:50;;;;;;;3.58;0.72;;;8.60;99.90;;;;;;1907263;75;21040;-74
2021/05/15 04:27:16;;;;;;;1.15;0.78;;;8.70;99.90;;;;;;1907298;75;21067;-75
2021/05/15 04:29:42;;;;;;;3.33;0.88;;;8.70;99.90;;;;;;1907362;75;21083;-74
2021/05/15 04:32:08;;;;;;;1.30;0.75;;;8.70;99.90;;;;;;1907176;75;21083;-74
2021/05/15 04:34:34;;;;;;;0.70;0.70;;;8.70;99.90;;;;;;1907373;75;21581;-74
2021/05/15 04:37:00;;;;;;;0.60;0.53;;;8.90;99.90;;;;;;1907374;75;21396;-74
2021/05/15 04:39:28;;;;;;;0.85;0.72;;;8.80;99.90;;;;;;1907380;75;21487;-75
2021/05/15 04:41:54;;;;;;;0.85;0.60;;;9.00;99.90;;;;;;1907256;75;21145;-75
2021/05/15 04:44:20;;;;;;;3.98;0.80;;;8.90;99.90;;;;;;1907365;75;21067;-74
2021/05/15 04:46:46;;;;;;;0.62;0.60;;;8.90;99.90;;;;;;1907235;75;21071;-74
2021/05/15 04:49:12;;;;;;;1.92;0.75;;;9.00;99.90;;;;;;1907286;75;21071;-74
2021/05/15 04:51:40;;;;;;;0.82;0.80;;;9.10;99.90;;;;;;1907243;75;21040;-74
2021/05/15 04:54:06;;;;;;;3.00;0.70;;;9.00;99.90;;;;;;1907313;75;21069;-75
2021/05/15 04:56:32;;;;;;;3.15;1.12;;;9.00;99.90;;;;;;1907393;75;21042;-71
2021/05/15 04:58:58;;;;;;;1.50;0.70;;;9.10;99.90;;;;;;1907292;75;21483;-72
2021/05/15 05:01:24;;;;;;;0.95;0.75;;;9.20;99.90;;;;;;1907343;75;21548;-72
2021/05/15 05:03:51;;;;;;;2.20;0.78;;;9.40;99.90;;;;;;1907187;75;21494;-71
2021/05/15 05:06:17;;;;;;;3.15;0.70;;;9.40;99.90;;;;;;1907353;75;21145;-72
2021/05/15 05:08:43;;;;;;;1.10;0.80;;;9.50;99.90;;;;;;1907177;75;21091;-71
2021/05/15 05:11:09;;;;;;;3.47;0.80;;;9.60;99.90;;;;;;1907351;75;21191;-72
2021/05/15 05:13:35;;;;;;;2.75;0.82;;;9.80;99.90;;;;;;1907275;75;21071;-71
2021/05/15 05:16:01;;;;;;;1.02;0.90;;;9.90;99.90;;;;;;1907264;75;21071;-71
2021/05/15 05:18:27;;;;;;;1.10;0.70;;;10.10;99.90;;;;;;1907378;75;21064;-71
2021/05/15 05:20:56;;;;;;;0.60;0.55;;;10.10;99.90;;;;;;1907321;75;21095;-71
2021/05/15 05:23:21;;;;;;;0.50;0.50;;;10.20;99.90;;;;;;1907084;75;21158;-71
2021/05/15 05:25:48;;;;;;;0.72;0.50;;;10.20;99.90;;;;;;1907261;75;21113;-71
2021/05/15 05:28:16;;;;;;;1.92;0.65;;;10.20;99.90;;;;;;1907360;75;21079;-71
2021/05/15 05:30:42;;;;;;;1.10;0.65;;;10.30;99.90;;;;;;1907253;75;21078;-72
2021/05/15 05:33:08;;;;;;;0.80;0.47;;;10.50;99.90;;;;;;1907404;75;21040;-70
2021/05/15 05:35:35;;;;;;;0.72;0.60;;;10.50;99.90;;;;;;1907371;75;21140;-70
2021/05/15 05:38:01;;;;;;;1.15;0.42;;;10.80;99.90;;;;;;1907362;75;21501;-69
2021/05/15 05:40:27;;;;;;;0.60;0.50;;;10.80;99.90;;;;;;1907368;75;21490;-69
2021/05/15 05:42:53;;;;;;;0.60;0.60;;;10.90;99.90;;;;;;1907378;75;21483;-69
2021/05/15 05:45:19;;;;;;;1.47;0.60;;;11.30;99.90;;;;;;1907342;75;21568;-69
2021/05/15 05:47:45;;;;;;;1.22;0.70;;;11.60;99.90;;;;;;1907352;75;21596;-70
2021/05/15 05:50:12;;;;;;;0.50;0.47;;;11.50;99.90;;;;;;1907356;75;21068;-69
2021/05/15 05:52:38;;;;;;;0.57;0.57;;;11.70;99.90;;;;;;1907411;75;21083;-69
2021/05/15 05:55:04;;;;;;;1.60;0.60;;;11.90;99.90;;;;;;1907337;75;21155;-69
2021/05/15 05:57:30;;;;;;;2.12;0.70;;;11.90;99.90;;;;;;1907242;75;21495;-69
2021/05/15 05:59:56;;;;;;;1.90;0.70;;;12.00;99.90;;;;;;1907561;75;21431;-69
2021/05/15 06:02:22;;;;;;;0.60;0.60;;;12.20;99.90;;;;;;1907359;75;21569;-69
2021/05/15 06:04:48;;;;;;;2.27;0.62;;;12.10;99.90;;;;;;1907380;75;21574;-69
2021/05/15 06:07:14;;;;;;;0.50;0.50;;;12.50;99.90;;;;;;1907295;75;21483;-69
2021/05/15 06:09:41;;;;;;;1.27;0.40;;;12.50;99.90;;;;;;1907101;75;21539;-69
2021/05/15 06:12:07;;;;;;;4.90;0.82;;;12.60;99.90;;;;;;1906700;75;21136;-69
2021/05/15 06:14:35;;;;;;;1.60;0.65;;;13.00;99.90;;;;;;1906903;75;21122;-68
2021/05/15 06:17:01;;;;;;;0.65;0.55;;;13.60;99.90;;;;;;1906812;75;21100;-68
2021/05/15 06:19:27;;;;;;;0.30;0.30;;;14.00;99.90;;;;;;1906831;75;21136;-69
2021/05/15 06:21:53;;;;;;;0.55;0.30;;;14.40;99.90;;;;;;1906741;75;21110;-68
2021/05/15 06:24:19;;;;;;;2.62;0.40;;;15.30;99.90;;;;;;1906776;75;21137;-68
2021/05/15 06:26:45;;;;;;;0.30;0.30;;;15.70;99.90;;;;;;1906760;75;21074;-69
2021/05/15 06:29:11;;;;;;;0.45;0.40;;;16.00;99.90;;;;;;1906676;75;21055;-69
2021/05/15 06:31:37;;;;;;;0.62;0.40;;;16.20;99.90;;;;;;1906650;75;21266;-69
2021/05/15 06:34:04;;;;;;;0.30;0.30;;;15.70;99.90;;;;;;1906684;75;21087;-69
2021/05/15 06:36:30;;;;;;;0.60;0.30;;;16.70;99.90;;;;;;1906658;75;21067;-69
2021/05/15 06:38:56;;;;;;;4.85;0.33;;;17.00;99.90;;;;;;1906681;75;21047;-69
2021/05/15 06:41:22;;;;;;;0.33;0.23;;;18.00;99.90;;;;;;1906738;75;21124;-69
2021/05/15 06:43:48;;;;;;;0.23;0.23;;;18.70;99.90;;;;;;1906685;75;21491;-70
2021/05/15 06:46:14;;;;;;;0.72;0.30;;;18.20;99.90;;;;;;1906695;75;21035;-69
2021/05/15 06:48:40;;;;;;;0.30;0.30;;;17.80;99.90;;;;;;1906896;75;21083;-70
2021/05/15 06:51:07;;;;;;;0.50;0.10;;;17.60;99.90;;;;;;1906697;75;21224;-69
2021/05/15 06:53:33;;;;;;;3.92;0.57;;;17.70;99.90;;;;;;1906540;75;21106;-69
2021/05/15 06:55:59;;;;;;;7.42;0.40;;;16.90;99.90;;;;;;1906770;75;21129;-69
2021/05/15 06:58:25;;;;;;;0.30;0.30;;;17.30;99.90;;;;;;1906918;75;21068;-69
2021/05/15 07:00:51;;;;;;;1.75;0.25;;;17.90;99.90;;;;;;1906826;75;21218;-70
2021/05/15 07:03:17;;;;;;;0.80;0.35;;;17.60;99.90;;;;;;1906801;75;21066;-70
2021/05/15 07:05:43;;;;;;;0.72;0.20;;;17.10;99.90;;;;;;1906778;75;21126;-70
2021/05/15 07:08:10;;;;;;;0.72;0.20;;;16.10;99.90;;;;;;1906872;75;21136;-69
2021/05/15 07:10:36;;;;;;;0.17;0.17;;;16.10;99.90;;;;;;1906721;75;21491;-69
2021/05/15 07:13:02;;;;;;;0.15;0.15;;;16.00;99.90;;;;;;1906994;75;21074;-68
2021/05/15 07:15:28;;;;;;;1.50;0.28;;;16.00;99.90;;;;;;1906622;75;21124;-69
2021/05/15 07:17:54;;;;;;;0.37;0.28;;;16.10;99.90;;;;;;1906915;75;21079;-69
2021/05/15 07:20:20;;;;;;;0.20;0.20;;;16.30;99.90;;;;;;1906566;75;21040;-68
2021/05/15 07:22:47;;;;;;;0.35;0.20;;;16.00;99.90;;;;;;1906750;75;21067;-69
2021/05/15 07:25:13;;;;;;;2.40;0.25;;;16.50;99.90;;;;;;1906620;75;21062;-69
2021/05/15 07:30:24;;;;;;;0.70;0.20;;;15.80;99.90;;;;;;1884492;76;21507;-68
2021/05/15 07:32:50;;;;;;;0.30;0.30;;;15.60;99.90;;;;;;1881407;76;21432;-68
2021/05/15 07:35:16;;;;;;;1.40;0.53;;;15.30;99.90;;;;;;1881584;76;21499;-68
2021/05/15 07:37:43;;;;;;;0.40;0.30;;;15.30;99.90;;;;;;1881491;76;21544;-69
2021/05/15 07:40:09;;;;;;;0.28;0.10;;;15.60;99.90;;;;;;1881479;76;21057;-68
2021/05/15 07:42:35;;;;;;;0.10;0.10;;;15.90;99.90;;;;;;1881577;76;21080;-69
2021/05/15 07:45:01;;;;;;;0.30;0.30;;;16.00;99.90;;;;;;1881495;76;21072;-68
2021/05/15 07:47:29;;;;;;;0.33;0.30;;;15.40;99.90;;;;;;1881509;76;21080;-68
2021/05/15 07:49:55;;;;;;;0.80;0.23;;;15.20;99.90;;;;;;1881442;76;21445;-69
2021/05/15 07:52:21;;;;;;;1.40;0.20;;;15.20;99.90;;;;;;1881471;76;21480;-68
2021/05/15 07:54:48;;;;;;;0.28;0.20;;;15.10;99.90;;;;;;1881454;76;21170;-69
2021/05/15 07:57:14;;;;;;;0.30;0.30;;;15.00;99.90;;;;;;1881490;76;21274;-69
2021/05/15 07:59:40;;;;;;;0.95;0.30;;;15.10;99.90;;;;;;1881364;76;21076;-68
2021/05/15 08:02:06;;;;;;;0.60;0.60;;;15.10;99.90;;;;;;1881424;76;21074;-69
2021/05/15 08:04:32;;;;;;;0.20;0.20;;;15.20;99.90;;;;;;1881462;76;21075;-68
2021/05/15 08:06:58;;;;;;;1.52;0.40;;;15.30;99.90;;;;;;1881441;76;21215;-69
2021/05/15 08:09:24;;;;;;;0.30;0.13;;;15.30;99.90;;;;;;1881577;76;21088;-68
2021/05/15 08:11:50;;;;;;;0.20;0.20;;;15.30;99.90;;;;;;1881449;76;21072;-69
2021/05/15 08:14:16;;;;;;;0.47;0.30;;;15.30;99.90;;;;;;1881552;76;21071;-69
2021/05/15 08:16:43;;;;;;;0.30;0.30;;;15.20;99.90;;;;;;1881632;76;21157;-68
2021/05/15 08:19:09;;;;;;;0.30;0.20;;;15.30;99.90;;;;;;1881491;76;21049;-68
2021/05/15 08:21:35;;;;;;;1.70;0.25;;;15.50;99.90;;;;;;1881601;76;21084;-70
2021/05/15 08:24:01;;;;;;;0.20;0.20;;;15.60;99.90;;;;;;1881468;76;21134;-68
2021/05/15 08:26:28;;;;;;;0.10;0.10;;;15.90;99.90;;;;;;1881638;76;21083;-68
2021/05/15 08:28:54;;;;;;;0.75;0.30;;;15.90;99.90;;;;;;1881633;76;21119;-69
2021/05/15 08:31:21;;;;;;;0.70;0.20;;;15.90;99.90;;;;;;1881478;76;21049;-69
2021/05/15 08:33:47;;;;;;;0.85;0.30;;;15.90;99.90;;;;;;1881395;76;21213;-71
2021/05/15 08:36:13;;;;;;;0.20;0.20;;;16.00;99.90;;;;;;1881448;76;21041;-72
2021/05/15 08:38:39;;;;;;;0.25;0.20;;;15.70;99.90;;;;;;1881424;76;21150;-70
2021/05/15 08:41:05;;;;;;;0.75;0.30;;;15.40;99.90;;;;;;1881511;76;21109;-70
2021/05/15 08:43:31;;;;;;;3.37;0.30;;;15.40;99.90;;;;;;1881372;76;21101;-71
2021/05/15 08:45:58;;;;;;;1.75;0.30;;;15.10;99.90;;;;;;1881500;76;21048;-72
2021/05/15 08:48:24;;;;;;;0.10;0.10;;;15.30;99.90;;;;;;1881507;76;21100;-72
2021/05/15 08:50:50;;;;;;;0.20;0.20;;;15.40;99.90;;;;;;1881533;76;21076;-70
2021/05/15 08:53:16;;;;;;;5.60;0.33;;;15.60;99.90;;;;;;1881420;76;21072;-70
2021/05/15 08:55:43;;;;;;;0.88;0.47;;;15.80;99.90;;;;;;1881504;76;21138;-70
2021/05/15 08:58:09;;;;;;;0.13;0.10;;;16.00;99.90;;;;;;1881436;76;21075;-70
2021/05/15 09:00:35;;;;;;;0.30;0.30;;;15.80;99.90;;;;;;1881386;76;21108;-70
2021/05/15 09:03:01;;;;;;;0.15;0.15;;;15.60;99.90;;;;;;1881352;76;21119;-69
2021/05/15 09:05:27;;;;;;;0.20;0.20;;;15.40;99.90;;;;;;1881371;76;21080;-70
2021/05/15 09:07:53;;;;;;;0.10;0.10;;;15.60;99.90;;;;;;1881370;76;21157;-73
2021/05/15 09:10:19;;;;;;;0.57;0.28;;;15.70;99.90;;;;;;1881357;76;21082;-73
2021/05/15 09:12:45;;;;;;;0.30;0.30;;;15.80;99.90;;;;;;1881323;76;21590;-72
2021/05/15 09:15:12;;;;;;;0.20;0.20;;;15.90;99.90;;;;;;1881468;76;21515;-70
2021/05/15 09:17:38;;;;;;;5.67;0.80;;;16.20;99.90;;;;;;1881358;76;21076;-69
2021/05/15 09:20:04;;;;;;;0.35;0.35;;;16.30;99.90;;;;;;1881426;76;21111;-71
2021/05/15 09:22:30;;;;;;;0.82;0.23;;;16.10;99.90;;;;;;1881414;76;21141;-71
2021/05/15 09:24:56;;;;;;;0.42;0.20;;;16.30;99.90;;;;;;1881560;76;21067;-71
2021/05/15 09:27:22;;;;;;;0.10;0.10;;;16.60;99.90;;;;;;1881574;76;21133;-72
2021/05/15 09:29:48;;;;;;;1.12;0.33;;;16.20;99.90;;;;;;1881551;76;21145;-71
2021/05/15 09:32:14;;;;;;;0.85;0.37;;;16.10;99.90;;;;;;1881458;76;21119;-70
2021/05/15 09:34:41;;;;;;;0.65;0.30;;;16.10;99.90;;;;;;1881503;76;21075;-70
2021/05/15 09:37:07;;;;;;;1.87;0.25;;;16.50;99.90;;;;;;1881484;76;21137;-70
2021/05/15 09:39:33;;;;;;;0.25;0.25;;;16.60;99.90;;;;;;1881499;76;21075;-70
2021/05/15 09:41:59;;;;;;;0.55;0.20;;;17.20;99.90;;;;;;1881459;76;21064;-70
2021/05/15 09:44:26;;;;;;;0.28;0.28;;;17.20;99.90;;;;;;1881392;76;21068;-70
2021/05/15 09:46:52;;;;;;;0.53;0.30;;;17.40;99.90;;;;;;1881465;76;21080;-70
2021/05/15 09:49:18;;;;;;;0.78;0.50;;;17.30;99.90;;;;;;1881392;76;21076;-71
2021/05/15 09:51:44;;;;;;;0.75;0.30;;;17.40;99.90;;;;;;1881355;76;21165;-70
2021/05/15 09:54:10;;;;;;;1.90;0.28;;;17.20;99.90;;;;;;1881363;76;21075;-70
2021/05/15 09:56:36;;;;;;;1.42;0.42;;;16.70;99.90;;;;;;1881372;76;21076;-70
2021/05/15 09:59:02;;;;;;;0.50;0.30;;;17.30;99.90;;;;;;1881401;76;21138;-70
2021/05/15 10:01:28;;;;;;;1.02;0.42;;;17.80;99.90;;;;;;1881438;76;21040;-70
2021/05/15 10:03:55;;;;;;;0.40;0.40;;;18.20;99.90;;;;;;1881509;76;21213;-69
2021/05/15 10:06:21;;;;;;;0.45;0.20;;;18.10;99.90;;;;;;1881504;76;21134;-70
2021/05/15 10:08:47;;;;;;;0.28;0.13;;;18.10;99.90;;;;;;1881468;76;21072;-70
2021/05/15 10:11:13;;;;;;;1.65;0.30;;;18.00;99.90;;;;;;1881414;76;21048;-70
2021/05/15 10:13:40;;;;;;;0.65;0.40;;;17.80;99.90;;;;;;1881408;76;21142;-70
2021/05/15 10:16:06;;;;;;;1.00;0.37;;;18.00;99.90;;;;;;1881505;76;21142;-70
2021/05/15 10:18:32;;;;;;;0.20;0.10;;;18.00;99.90;;;;;;1881527;76;21161;-69
2021/05/15 10:20:58;;;;;;;0.55;0.30;;;17.40;99.90;;;;;;1881655;76;21069;-71
2021/05/15 10:23:24;;;;;;;0.37;0.25;;;16.80;99.90;;;;;;1881809;76;21092;-69
2021/05/15 10:25:50;;;;;;;0.20;0.20;;;16.60;99.90;;;;;;1881601;76;21071;-70
2021/05/15 10:28:17;;;;;;;9.03;0.53;;;16.80;99.90;;;;;;1881590;76;21093;-71
2021/05/15 10:30:43;;;;;;;1.55;0.30;;;17.10;99.90;;;;;;1881640;76;21068;-70
2021/05/15 10:33:09;;;;;;;0.20;0.20;;;16.90;99.90;;;;;;1881486;76;21057;-70
2021/05/15 10:35:35;;;;;;;0.35;0.20;;;16.70;99.90;;;;;;1881691;76;21173;-69
2021/05/15 10:38:01;;;;;;;0.30;0.30;;;16.70;99.90;;;;;;1881445;76;21133;-70
2021/05/15 10:40:28;;;;;;;2.15;0.55;;;16.40;99.90;;;;;;1881547;76;21141;-71
2021/05/15 10:42:54;;;;;;;6.03;0.47;;;16.40;99.90;;;;;;1881537;76;21192;-70
2021/05/15 10:45:20;;;;;;;1.27;0.68;;;16.50;99.90;;;;;;1881548;76;21048;-71
2021/05/15 10:47:46;;;;;;;0.40;0.28;;;16.40;99.90;;;;;;1881706;76;21153;-70
2021/05/15 10:50:13;;;;;;;1.00;0.37;;;16.70;99.90;;;;;;1881696;76;21067;-70
2021/05/15 10:52:39;;;;;;;0.40;0.30;;;16.90;99.90;;;;;;1881676;76;21076;-70
2021/05/15 10:55:08;;;;;;;0.65;0.50;;;16.90;99.90;;;;;;1881572;76;21092;-71
2021/05/15 10:57:33;;;;;;;0.42;0.40;;;16.90;99.90;;;;;;1881432;76;21097;-70
2021/05/15 11:00:00;;;;;;;0.78;0.33;;;17.10;99.90;;;;;;1881912;76;21162;-71
2021/05/15 11:02:26;;;;;;;1.17;0.60;;;17.20;99.90;;;;;;1881856;76;21083;-71
2021/05/15 11:04:52;;;;;;;0.62;0.30;;;17.40;99.90;;;;;;1881927;76;21450;-70
2021/05/15 11:07:18;;;;;;;1.65;0.30;;;17.90;99.90;;;;;;1881962;76;21476;-70
2021/05/15 11:09:44;;;;;;;0.75;0.30;;;18.70;99.90;;;;;;1881904;76;21562;-70
2021/05/15 11:12:11;;;;;;;1.75;0.60;;;18.40;99.90;;;;;;1881901;76;21533;-71
2021/05/15 11:14:37;;;;;;;2.45;0.37;;;18.40;99.90;;;;;;1881900;76;21076;-71
2021/05/15 11:17:03;;;;;;;0.20;0.17;;;18.50;99.90;;;;;;1881799;76;21138;-70
2021/05/15 11:19:29;;;;;;;2.50;0.20;;;18.70;99.90;;;;;;1882023;76;21074;-70
2021/05/15 11:21:55;;;;;;;0.90;0.30;;;18.50;99.90;;;;;;1881741;76;21137;-70
2021/05/15 11:24:21;;;;;;;0.60;0.30;;;17.70;99.90;;;;;;1882031;76;21073;-69
2021/05/15 11:26:51;;;;;;;0.30;0.30;;;17.30;99.90;;;;;;1881759;76;21199;-70
2021/05/15 11:29:15;;;;;;;0.88;0.45;;;16.90;99.90;;;;;;1881611;76;21602;-69
2021/05/15 11:31:41;;;;;;;0.95;0.40;;;16.70;99.90;;;;;;1881872;76;21433;-70
2021/05/15 11:34:08;;;;;;;2.20;0.37;;;16.20;99.90;;;;;;1881839;76;21503;-70
2021/05/15 11:36:34;;;;;;;1.60;0.55;;;16.00;99.90;;;;;;1881756;76;21492;-70
2021/05/15 11:39:00;;;;;;;0.82;0.40;;;15.70;99.90;;;;;;1882004;76;21079;-69
2021/05/15 11:41:26;;;;;;;0.40;0.40;;;15.60;99.90;;;;;;1881952;76;21149;-68
2021/05/15 11:43:52;;;;;;;0.72;0.25;;;15.70;99.90;;;;;;1881814;76;21076;-68
2021/05/15 11:46:18;;;;;;;0.62;0.40;;;15.60;99.90;;;;;;1881685;76;21075;-68
2021/05/15 11:48:48;;;;;;;0.10;0.10;;;15.70;99.90;;;;;;1881461;76;21103;-69
2021/05/15 11:51:12;;;;;;;1.85;0.45;;;15.80;99.90;;;;;;1881030;76;21131;-69
2021/05/15 11:53:39;;;;;;;2.27;0.82;;;16.20;99.90;;;;;;1881504;76;21068;-69
2021/05/15 11:56:05;;;;;;;2.45;0.40;;;16.50;99.90;;;;;;1882307;76;21131;-69
2021/05/15 11:58:31;;;;;;;0.50;0.40;;;17.00;99.90;;;;;;1882826;76;21124;-69
2021/05/15 12:00:57;;;;;;;0.30;0.30;;;17.00;99.90;;;;;;1881641;76;21087;-69
2021/05/15 12:03:23;;;;;;;0.30;0.30;;;17.40;99.90;;;;;;1881422;76;21020;-69
2021/05/15 12:05:50;;;;;;;1.47;0.50;;;17.50;99.90;;;;;;1881488;76;21157;-69
2021/05/15 12:08:16;;;;;;;0.82;0.30;;;17.60;99.90;;;;;;1881482;76;21080;-70
2021/05/15 12:10:42;;;;;;;1.87;0.40;;;17.70;99.90;;;;;;1882978;76;21091;-69
2021/05/15 12:13:09;;;;;;;2.62;0.30;;;17.60;99.90;;;;;;1881640;76;21056;-69
2021/05/15 12:15:35;;;;;;;0.35;0.35;;;17.00;99.90;;;;;;1882160;76;21175;-70
2021/05/15 12:18:01;;;;;;;0.10;0.10;;;16.60;99.90;;;;;;1882184;76;21182;-70
2021/05/15 12:20:27;;;;;;;0.40;0.28;;;16.80;99.90;;;;;;1882082;76;21606;-70
2021/05/15 12:22:54;;;;;;;0.90;0.20;;;16.70;99.90;;;;;;1882026;76;21556;-70
2021/05/15 12:25:20;;;;;;;0.55;0.30;;;17.00;99.90;;;;;;1881872;76;21087;-70
2021/05/15 12:27:46;;;;;;;1.80;0.35;;;17.10;99.90;;;;;;1882014;76;21050;-70
2021/05/15 12:30:12;;;;;;;1.17;0.30;;;18.00;99.90;;;;;;1882035;76;21150;-70
2021/05/15 12:32:41;;;;;;;1.45;0.40;;;19.00;99.90;;;;;;1882064;76;21084;-70
2021/05/15 12:35:06;;;;;;;0.10;0.10;;;19.80;99.90;;;;;;1881725;76;21088;-70
2021/05/15 12:37:32;;;;;;;0.23;0.15;;;19.70;99.90;;;;;;1882119;76;21093;-70
2021/05/15 12:39:59;;;;;;;0.33;0.15;;;20.30;99.90;;;;;;1882019;76;21049;-70
2021/05/15 12:42:25;;;;;;;0.20;0.20;;;20.20;99.10;;;;;;1882154;76;21144;-70
2021/05/15 12:44:51;;;;;;;0.82;0.40;;;19.30;99.90;;;;;;1882050;76;21153;-70
2021/05/15 12:47:17;;;;;;;0.40;0.20;;;18.60;99.90;;;;;;1882060;76;21221;-70